Главная страница
METAR-TAF:

METAR-TAF

Аэропорты :

Кюрасао, Нидерландские Антильские острова

широта: 12-12N, долгота: 068-58W, высота над уровнем моря: 9 м

Текущие метеонаблюдения

Эта сводка был подготовлена 40 минут назад, в 05:00 UTC
Ветер 9 Узел от восточно-юго-восточный
Температура 27°C
Влажность 79%
Давление 1012 hPa
Видимость 10 км и более
небольшая облачность на высоте 1600 фута

METAR: TNCC 230500Z 11009KT 9999 FEW016 27/23 Q1012 NOSIG

Время: 01:40 (05:40 UTC)

Прогноз

Эта сводка был подготовлена 1 час и 50 минут назад, в 03:50 UTC
Прогноз действительный с 23-го 06 UTC до 24-го 06 UTC
Ветер 11 Узел от восточный с порывами до 21 Узел
Видимость 10 км и более
Отдельные облака на высоте 1600 фута
Вероятность 30% :
временами
С 23-го 06 UTC до 23-го 12 UTC
Видимость: 7000 м
Рассеянная облачность на высоте 1400 фута
небольшие ливневые дожди

TAF: TNCC 230350Z 2306/2406 10011G21KT 9999 SCT016 PROB30 TEMPO 2306/2312 7000 -SHRA BKN014

Метеонаблюдения и прогнозы для более 4000 аэропортов (сводки METAR и TAF).

Имеющиеся станции представлены на карте желтыми и красными точками.

Чтобы увидеть название станции, наведите на нее мышь.

Затем щелкните, чтобы увидеть метеонаблюдения и метеопрогнозы.

Управление картой: чтобы увеличить масштаб, щелкните зеленые кнопки с черным крестиком; чтобы уменьшить масштаб, щелкните зеленую кнопку с тире; для просмотра соседних карт щелкайте зеленые стрелки.


METAR-TAF: